createdAt,value
2023-05-10T00:00:12.808Z,2.30
2023-05-10T00:01:42.889Z,2.20
2023-05-10T00:02:49.539Z,2.10
2023-05-10T00:03:57.187Z,2.10
2023-05-10T00:05:04.563Z,1.90
2023-05-10T00:06:11.811Z,2.00
2023-05-10T00:07:20.303Z,1.70
2023-05-10T00:08:27.174Z,1.70
2023-05-10T00:09:34.059Z,1.70
2023-05-10T00:10:41.192Z,1.60
2023-05-10T00:11:49.368Z,1.70
2023-05-10T00:12:56.345Z,1.70
2023-05-10T00:14:03.133Z,1.40
2023-05-10T00:15:13.248Z,1.50
2023-05-10T00:16:20.180Z,1.60
2023-05-10T00:17:27.293Z,1.30
2023-05-10T00:18:34.203Z,1.30
2023-05-10T00:19:41.025Z,1.30
2023-05-10T00:20:48.168Z,1.00
2023-05-10T00:21:55.377Z,1.20
2023-05-10T00:23:02.060Z,1.40
2023-05-10T00:24:09.281Z,1.10
2023-05-10T00:25:16.473Z,1.10
2023-05-10T00:26:23.501Z,1.20
2023-05-10T00:27:31.735Z,0.90
2023-05-10T00:28:38.695Z,1.20
2023-05-10T00:29:45.652Z,1.10
2023-05-10T00:30:52.380Z,1.20
2023-05-10T00:32:00.491Z,1.10
2023-05-10T00:33:07.670Z,0.90
2023-05-10T00:34:14.582Z,1.10
2023-05-10T00:35:21.970Z,1.10
2023-05-10T00:36:30.368Z,1.00
2023-05-10T00:37:37.192Z,1.10
2023-05-10T00:38:44.240Z,0.90
2023-05-10T00:39:50.845Z,1.00
2023-05-10T00:40:58.629Z,0.90
2023-05-10T00:42:08.411Z,1.00
2023-05-10T00:43:15.817Z,0.80
2023-05-10T00:44:23.283Z,0.80
2023-05-10T00:45:31.189Z,1.00
2023-05-10T00:46:38.370Z,0.80
2023-05-10T00:47:45.357Z,0.90
2023-05-10T00:48:52.203Z,0.80
2023-05-10T00:49:59.985Z,0.80
2023-05-10T00:51:07.237Z,0.90
2023-05-10T00:52:17.195Z,0.80
2023-05-10T00:53:24.471Z,0.70
2023-05-10T00:54:31.573Z,0.80
2023-05-10T00:55:39.170Z,0.80
2023-05-10T00:56:50.922Z,0.90
2023-05-10T00:57:57.989Z,0.90
2023-05-10T00:59:04.982Z,0.90
2023-05-10T01:00:12.489Z,0.70
2023-05-10T01:01:22.830Z,0.80
2023-05-10T01:02:30.437Z,0.70
2023-05-10T01:03:37.985Z,0.90
2023-05-10T01:04:46.894Z,0.90
2023-05-10T01:05:54.480Z,0.70
2023-05-10T01:07:02.317Z,0.80
2023-05-10T01:08:10.706Z,0.80
2023-05-10T01:09:17.962Z,0.70
2023-05-10T01:10:25.177Z,0.80
2023-05-10T01:11:32.145Z,0.70
2023-05-10T01:12:42.318Z,0.60
2023-05-10T01:13:51.247Z,0.80
2023-05-10T01:14:58.601Z,0.80
2023-05-10T01:16:07.125Z,0.90
2023-05-10T01:17:15.429Z,0.80
2023-05-10T01:18:22.085Z,0.70
2023-05-10T01:19:31.425Z,0.80
2023-05-10T01:20:42.295Z,0.70
2023-05-10T01:22:12.392Z,0.70
2023-05-10T01:23:47.037Z,0.90
2023-05-10T01:25:31.522Z,0.70
2023-05-10T01:27:05.241Z,0.80
2023-05-10T01:28:46.967Z,0.70
2023-05-10T01:30:25.524Z,0.80
2023-05-10T01:31:58.939Z,0.80
2023-05-10T01:33:34.138Z,0.70
2023-05-10T01:35:04.300Z,0.70
2023-05-10T01:36:39.033Z,0.70
2023-05-10T01:37:52.240Z,0.70
2023-05-10T01:39:11.299Z,0.70
2023-05-10T01:40:41.882Z,0.70
2023-05-10T01:42:13.666Z,0.80
2023-05-10T01:43:23.081Z,0.90
2023-05-10T01:44:46.788Z,0.70
2023-05-10T01:46:13.101Z,0.70
2023-05-10T01:47:49.682Z,0.70
2023-05-10T01:48:58.881Z,0.80
2023-05-10T01:50:10.803Z,0.80
2023-05-10T01:51:25.205Z,0.70
2023-05-10T01:52:46.939Z,0.70
2023-05-10T01:53:59.890Z,0.80
2023-05-10T01:55:15.088Z,0.70
2023-05-10T01:56:23.725Z,0.80
2023-05-10T01:57:34.947Z,0.70
2023-05-10T01:58:44.108Z,0.80
2023-05-10T01:59:53.152Z,0.60
2023-05-10T02:01:03.611Z,0.80
2023-05-10T02:02:14.775Z,0.70
2023-05-10T02:03:24.115Z,0.80
2023-05-10T02:04:32.871Z,0.60
2023-05-10T02:05:41.339Z,0.80
2023-05-10T02:06:50.471Z,0.90
2023-05-10T02:07:57.856Z,0.70
2023-05-10T02:09:05.579Z,0.80
2023-05-10T02:10:12.782Z,0.80
2023-05-10T02:11:20.221Z,0.70
2023-05-10T02:12:28.115Z,0.90
2023-05-10T02:13:36.205Z,0.90
2023-05-10T02:14:43.170Z,0.90
2023-05-10T02:15:54.605Z,0.80
2023-05-10T02:17:02.463Z,0.80
2023-05-10T02:18:10.507Z,0.80
2023-05-10T02:19:17.523Z,0.80
2023-05-10T02:20:26.594Z,0.90
2023-05-10T02:21:35.998Z,0.80
2023-05-10T02:22:44.282Z,0.70
2023-05-10T02:23:53.912Z,0.80
2023-05-10T02:25:02.423Z,0.80
2023-05-10T02:26:30.374Z,0.90
2023-05-10T02:27:39.618Z,0.80
2023-05-10T02:28:48.710Z,0.70
2023-05-10T02:29:56.299Z,0.80
2023-05-10T02:31:03.686Z,0.60
2023-05-10T02:32:11.600Z,0.70
2023-05-10T02:33:19.157Z,0.80
2023-05-10T02:34:27.815Z,0.80
2023-05-10T02:35:35.880Z,1.00
2023-05-10T02:36:43.681Z,0.90
2023-05-10T02:37:51.067Z,0.70
2023-05-10T02:38:57.933Z,0.80
2023-05-10T02:40:06.499Z,0.90
2023-05-10T02:41:13.286Z,0.70
2023-05-10T02:42:21.355Z,0.70
2023-05-10T02:43:28.976Z,0.80
2023-05-10T02:44:39.691Z,0.80
2023-05-10T02:45:49.656Z,0.70
2023-05-10T02:46:58.391Z,0.80
2023-05-10T02:48:05.331Z,0.70
2023-05-10T02:49:13.351Z,0.90
2023-05-10T02:50:20.698Z,0.80
2023-05-10T02:51:28.836Z,0.70
2023-05-10T02:52:46.022Z,0.90
2023-05-10T02:53:53.784Z,0.80
2023-05-10T02:55:03.625Z,0.70
2023-05-10T02:56:27.520Z,0.60
2023-05-10T02:57:38.221Z,0.70
2023-05-10T02:58:45.248Z,0.70
2023-05-10T02:59:51.917Z,0.60
2023-05-10T03:00:59.441Z,0.80
2023-05-10T03:02:06.053Z,0.70
2023-05-10T03:03:13.260Z,0.70
2023-05-10T03:04:20.062Z,0.70
2023-05-10T03:05:30.225Z,0.90
2023-05-10T03:06:39.341Z,0.70
2023-05-10T03:07:47.374Z,0.60
2023-05-10T03:08:55.893Z,0.60
2023-05-10T03:10:04.384Z,0.80
2023-05-10T03:11:39.924Z,0.60
2023-05-10T03:13:05.357Z,0.80
2023-05-10T03:14:53.115Z,0.70
2023-05-10T03:16:22.544Z,0.70
2023-05-10T03:18:01.423Z,0.90
2023-05-10T03:19:30.247Z,0.90
2023-05-10T03:20:39.660Z,0.80
2023-05-10T03:21:50.259Z,0.80
2023-05-10T03:23:05.699Z,0.70
2023-05-10T03:24:14.211Z,0.70
2023-05-10T03:25:21.339Z,0.70
2023-05-10T03:26:30.564Z,0.80
2023-05-10T03:27:44.563Z,0.70
2023-05-10T03:28:51.072Z,0.70
2023-05-10T03:29:58.011Z,0.70
2023-05-10T03:31:06.710Z,0.70
2023-05-10T03:32:13.786Z,0.80
2023-05-10T03:33:20.763Z,0.60
2023-05-10T03:34:27.823Z,0.70
2023-05-10T03:35:35.663Z,0.70
2023-05-10T03:36:44.504Z,0.70
2023-05-10T03:37:52.696Z,0.80
2023-05-10T03:39:01.250Z,0.80
2023-05-10T03:40:09.900Z,0.70
2023-05-10T03:41:18.110Z,0.70
2023-05-10T03:42:25.606Z,0.80
2023-05-10T03:43:32.858Z,0.80
2023-05-10T03:44:41.275Z,0.70
2023-05-10T03:45:49.665Z,0.70
2023-05-10T03:46:59.640Z,0.70
2023-05-10T03:48:08.362Z,0.80
2023-05-10T03:49:15.748Z,0.90
2023-05-10T03:50:23.669Z,0.70
2023-05-10T03:51:33.894Z,0.80
2023-05-10T03:52:45.233Z,0.90
2023-05-10T03:53:53.277Z,0.60
2023-05-10T03:55:00.497Z,0.80
2023-05-10T03:56:07.314Z,0.70
2023-05-10T03:57:14.746Z,0.70
2023-05-10T03:58:21.317Z,0.70
2023-05-10T03:59:29.188Z,0.90
2023-05-10T04:00:37.955Z,0.80
2023-05-10T04:01:45.868Z,0.70
2023-05-10T04:02:54.182Z,0.70
2023-05-10T04:04:01.403Z,0.90
2023-05-10T04:05:09.413Z,0.80
2023-05-10T04:06:16.687Z,0.80
2023-05-10T04:07:24.736Z,0.90
2023-05-10T04:08:32.209Z,0.80
2023-05-10T04:09:41.122Z,0.90
2023-05-10T04:10:49.005Z,0.80
2023-05-10T04:11:56.680Z,0.90
2023-05-10T04:13:04.961Z,0.80
2023-05-10T04:14:12.423Z,0.60
2023-05-10T04:15:20.525Z,0.80
2023-05-10T04:16:28.107Z,0.90
2023-05-10T04:17:36.266Z,0.90
2023-05-10T04:18:44.351Z,0.70
2023-05-10T04:19:51.310Z,0.70
2023-05-10T04:20:58.497Z,0.70
2023-05-10T04:22:06.188Z,0.70
2023-05-10T04:23:14.361Z,0.80
2023-05-10T04:24:21.377Z,0.70
2023-05-10T04:25:28.591Z,0.80
2023-05-10T04:26:36.025Z,0.70
2023-05-10T04:27:44.455Z,0.70
2023-05-10T04:28:51.909Z,0.80
2023-05-10T04:29:59.882Z,0.70
2023-05-10T04:31:12.686Z,0.80
2023-05-10T04:32:19.604Z,0.70
2023-05-10T04:33:27.900Z,0.70
2023-05-10T04:34:36.724Z,0.60
2023-05-10T04:35:44.067Z,0.70
2023-05-10T04:36:51.500Z,0.80
2023-05-10T04:37:59.210Z,0.90
2023-05-10T04:39:07.582Z,0.80
2023-05-10T04:40:15.798Z,0.70
2023-05-10T04:41:23.552Z,0.80
2023-05-10T04:42:31.751Z,0.70
2023-05-10T04:43:40.229Z,0.90
2023-05-10T04:44:47.095Z,0.80
2023-05-10T04:45:57.072Z,0.90
2023-05-10T04:47:05.322Z,0.80
2023-05-10T04:48:12.920Z,0.80
2023-05-10T04:49:20.817Z,0.90
2023-05-10T04:50:28.471Z,0.70
2023-05-10T04:51:36.218Z,0.70
2023-05-10T04:52:44.435Z,0.70
2023-05-10T04:54:04.685Z,0.70
2023-05-10T04:55:13.504Z,0.80
2023-05-10T04:56:20.368Z,0.90
2023-05-10T04:57:27.691Z,0.80
2023-05-10T04:58:35.419Z,0.70
2023-05-10T04:59:42.875Z,0.60
2023-05-10T05:00:49.674Z,0.90
2023-05-10T05:01:57.424Z,0.70
2023-05-10T05:03:05.950Z,0.80
2023-05-10T05:04:13.911Z,0.60
2023-05-10T05:05:24.090Z,0.70
2023-05-10T05:06:31.208Z,0.90
2023-05-10T05:07:38.463Z,0.70
2023-05-10T05:08:46.719Z,0.80
2023-05-10T05:09:54.458Z,0.70
2023-05-10T05:11:01.664Z,0.80
2023-05-10T05:12:09.793Z,0.90
2023-05-10T05:13:16.743Z,0.90
2023-05-10T05:14:24.141Z,0.90
2023-05-10T05:15:33.310Z,0.80
2023-05-10T05:16:41.658Z,0.80
2023-05-10T05:17:48.361Z,0.70
2023-05-10T05:18:55.547Z,0.70
2023-05-10T05:20:02.356Z,0.80
2023-05-10T05:21:19.128Z,0.80
2023-05-10T05:22:30.100Z,0.60
2023-05-10T05:23:40.019Z,0.90
2023-05-10T05:24:47.243Z,0.80
2023-05-10T05:25:57.580Z,0.70
2023-05-10T05:27:05.978Z,0.60
2023-05-10T05:28:14.331Z,0.70
2023-05-10T05:29:21.517Z,0.80
2023-05-10T05:30:28.517Z,0.60
2023-05-10T05:31:35.600Z,0.70
2023-05-10T05:32:42.423Z,0.70
2023-05-10T05:33:50.241Z,0.70
2023-05-10T05:34:57.349Z,0.80
2023-05-10T05:36:04.735Z,0.70
2023-05-10T05:37:17.099Z,0.80
2023-05-10T05:38:25.004Z,0.80
2023-05-10T05:39:32.254Z,0.70
2023-05-10T05:40:39.342Z,0.90
2023-05-10T05:41:48.064Z,0.80
2023-05-10T05:42:55.306Z,0.80
2023-05-10T05:44:02.500Z,0.80
2023-05-10T05:45:11.978Z,0.70
2023-05-10T05:46:19.283Z,0.80
2023-05-10T05:47:27.358Z,0.60
2023-05-10T05:48:34.854Z,0.80
2023-05-10T05:49:43.481Z,0.60
2023-05-10T05:50:50.821Z,0.60
2023-05-10T05:52:01.634Z,0.60
2023-05-10T05:53:09.277Z,0.60
2023-05-10T05:54:16.915Z,0.70
2023-05-10T05:55:24.704Z,0.70
2023-05-10T05:56:31.565Z,0.60
2023-05-10T05:57:38.446Z,0.70
2023-05-10T05:58:46.836Z,0.70
2023-05-10T05:59:55.286Z,0.80
2023-05-10T06:01:05.461Z,0.60
2023-05-10T06:02:13.015Z,0.60
2023-05-10T06:03:21.020Z,0.70
2023-05-10T06:04:28.795Z,0.60
2023-05-10T06:05:37.379Z,0.70
2023-05-10T06:06:45.027Z,0.60
2023-05-10T06:07:53.705Z,0.60
2023-05-10T06:09:01.444Z,0.80
2023-05-10T06:10:09.979Z,0.50
2023-05-10T06:11:17.249Z,0.60
2023-05-10T06:12:24.637Z,0.70
2023-05-10T06:13:35.019Z,0.70
2023-05-10T06:14:43.451Z,0.70
2023-05-10T06:15:50.742Z,0.70
2023-05-10T06:16:59.027Z,0.70
2023-05-10T06:18:06.828Z,0.60
2023-05-10T06:19:15.302Z,0.70
2023-05-10T06:20:22.737Z,0.80
2023-05-10T06:21:30.726Z,0.70
2023-05-10T06:22:38.790Z,0.70
2023-05-10T06:23:47.282Z,0.70
2023-05-10T06:24:54.539Z,0.70
2023-05-10T06:26:02.324Z,0.60
2023-05-10T06:27:10.466Z,0.70
2023-05-10T06:28:17.443Z,0.70
2023-05-10T06:29:25.234Z,0.70
2023-05-10T06:30:34.313Z,0.60
2023-05-10T06:31:43.200Z,0.60
2023-05-10T06:32:50.389Z,0.60
2023-05-10T06:33:58.740Z,0.50
2023-05-10T06:35:07.368Z,0.60
2023-05-10T06:36:15.384Z,0.50
2023-05-10T06:37:23.031Z,0.70
2023-05-10T06:38:31.215Z,0.60
2023-05-10T06:39:39.437Z,0.70
2023-05-10T06:40:47.177Z,0.70
2023-05-10T06:41:55.053Z,0.70
2023-05-10T06:43:02.172Z,0.70
2023-05-10T06:44:08.831Z,0.60
2023-05-10T06:45:16.976Z,0.70
2023-05-10T06:46:25.215Z,0.70
2023-05-10T06:47:34.761Z,0.60
2023-05-10T06:48:44.572Z,0.70
2023-05-10T06:49:52.287Z,0.60
2023-05-10T06:51:00.542Z,0.60
2023-05-10T06:52:08.177Z,0.70
2023-05-10T06:53:16.141Z,0.60
2023-05-10T06:54:24.187Z,0.60
2023-05-10T06:55:32.247Z,0.60
2023-05-10T06:56:56.394Z,0.70
2023-05-10T06:58:04.698Z,0.60
2023-05-10T06:59:12.172Z,0.60
2023-05-10T07:00:21.249Z,0.80
2023-05-10T07:01:30.355Z,0.70
2023-05-10T07:02:38.527Z,0.70
2023-05-10T07:03:46.625Z,0.60
2023-05-10T07:04:54.334Z,0.50
2023-05-10T07:06:06.129Z,0.70
2023-05-10T07:07:14.062Z,0.60
2023-05-10T07:08:20.903Z,0.70
2023-05-10T07:09:29.037Z,0.60
2023-05-10T07:10:37.204Z,0.70
2023-05-10T07:11:45.434Z,0.70
2023-05-10T07:12:52.856Z,0.60
2023-05-10T07:14:00.581Z,0.70
2023-05-10T07:15:08.640Z,0.70
2023-05-10T07:16:17.241Z,0.60
2023-05-10T07:17:24.503Z,0.70
2023-05-10T07:18:32.881Z,0.60
2023-05-10T07:19:40.726Z,0.60
2023-05-10T07:20:48.236Z,0.70
2023-05-10T07:21:55.383Z,0.60
2023-05-10T07:23:04.487Z,0.60
2023-05-10T07:24:12.631Z,0.60
2023-05-10T07:25:20.090Z,0.60
2023-05-10T07:26:28.649Z,0.70
2023-05-10T07:27:37.644Z,0.70
2023-05-10T07:28:45.291Z,0.60
2023-05-10T07:29:53.433Z,0.60
2023-05-10T07:31:00.234Z,0.60
2023-05-10T07:32:08.012Z,0.60
2023-05-10T07:33:15.832Z,0.70
2023-05-10T07:34:22.756Z,0.70
2023-05-10T07:35:31.202Z,0.60
2023-05-10T07:36:39.636Z,0.70
2023-05-10T07:37:47.896Z,0.60
2023-05-10T07:38:55.850Z,0.60
2023-05-10T07:40:03.942Z,0.60
2023-05-10T07:41:11.480Z,0.50
2023-05-10T07:42:18.904Z,0.80
2023-05-10T07:43:26.750Z,0.50
2023-05-10T07:44:33.954Z,0.60
2023-05-10T07:45:41.806Z,0.70
2023-05-10T07:46:50.227Z,0.60
2023-05-10T07:47:57.507Z,0.70
2023-05-10T07:49:05.442Z,0.70
2023-05-10T07:50:14.096Z,0.60
2023-05-10T07:51:20.990Z,0.70
2023-05-10T07:52:28.867Z,0.50
2023-05-10T07:53:37.472Z,0.80
2023-05-10T07:54:45.295Z,0.60
2023-05-10T07:55:58.560Z,0.50
2023-05-10T07:57:07.092Z,0.70
2023-05-10T07:58:14.173Z,0.60
2023-05-10T07:59:21.790Z,0.70
2023-05-10T08:00:29.613Z,0.70
2023-05-10T08:01:37.770Z,0.60
2023-05-10T08:02:45.807Z,0.70
2023-05-10T08:03:53.729Z,0.70
2023-05-10T08:05:02.131Z,0.80
2023-05-10T08:06:09.912Z,0.60
2023-05-10T08:07:16.996Z,0.60
2023-05-10T08:08:25.259Z,0.70
2023-05-10T08:09:32.269Z,0.60
2023-05-10T08:10:40.921Z,0.70
2023-05-10T08:11:48.846Z,0.60
2023-05-10T08:12:56.966Z,0.60
2023-05-10T08:14:04.187Z,0.60
2023-05-10T08:15:11.759Z,0.60
2023-05-10T08:16:19.556Z,0.80
2023-05-10T08:17:27.592Z,0.60
2023-05-10T08:18:38.377Z,0.50
2023-05-10T08:19:45.560Z,0.60
2023-05-10T08:20:52.629Z,0.60
2023-05-10T08:22:00.529Z,0.60
2023-05-10T08:23:08.711Z,0.60
2023-05-10T08:24:16.087Z,0.60
2023-05-10T08:25:23.985Z,0.60
2023-05-10T08:26:32.472Z,0.50
2023-05-10T08:27:41.185Z,0.70
2023-05-10T08:28:49.463Z,0.60
2023-05-10T08:29:57.263Z,0.60
2023-05-10T08:31:05.212Z,0.70
2023-05-10T08:32:12.652Z,0.50
2023-05-10T08:33:21.190Z,0.60
2023-05-10T08:34:28.639Z,0.50
2023-05-10T08:35:37.438Z,0.60
2023-05-10T08:36:45.611Z,0.60
2023-05-10T08:37:53.429Z,0.50
2023-05-10T08:39:00.950Z,0.70
2023-05-10T08:40:09.226Z,0.60
2023-05-10T08:41:17.178Z,0.50
2023-05-10T08:42:25.109Z,0.60
2023-05-10T08:43:33.899Z,0.60
2023-05-10T08:44:40.465Z,0.70
2023-05-10T08:45:51.005Z,0.60
2023-05-10T08:46:59.004Z,0.60
2023-05-10T08:48:08.200Z,0.70
2023-05-10T08:49:21.423Z,0.60
2023-05-10T08:50:28.369Z,0.60
2023-05-10T08:51:39.952Z,0.70
2023-05-10T08:52:48.135Z,0.60
2023-05-10T08:53:55.003Z,0.60
2023-05-10T08:55:02.397Z,0.50
2023-05-10T08:56:10.911Z,0.60
2023-05-10T08:57:18.180Z,0.60
2023-05-10T08:58:26.017Z,0.60
2023-05-10T08:59:35.693Z,0.60
2023-05-10T09:00:43.065Z,0.50
2023-05-10T09:01:52.800Z,0.70
2023-05-10T09:03:01.581Z,0.60
2023-05-10T09:04:09.199Z,0.40
2023-05-10T09:05:18.860Z,0.60
2023-05-10T09:06:26.947Z,0.60
2023-05-10T09:07:34.792Z,0.70
2023-05-10T09:08:43.989Z,0.60
2023-05-10T09:09:50.565Z,0.80
2023-05-10T09:11:01.616Z,0.60
2023-05-10T09:12:09.931Z,0.50
2023-05-10T09:13:17.677Z,0.60
2023-05-10T09:14:25.990Z,0.50
2023-05-10T09:15:33.990Z,0.50
2023-05-10T09:16:42.658Z,0.60
2023-05-10T09:17:49.597Z,0.50
2023-05-10T09:18:58.152Z,0.40
2023-05-10T09:20:07.104Z,0.60
2023-05-10T09:21:15.024Z,0.50
2023-05-10T09:22:21.980Z,0.60
2023-05-10T09:23:35.297Z,0.70
2023-05-10T09:24:47.916Z,0.50
2023-05-10T09:26:11.040Z,0.60
2023-05-10T09:27:18.062Z,0.70
2023-05-10T09:28:25.833Z,0.70
2023-05-10T09:29:46.595Z,0.50
2023-05-10T09:30:58.826Z,0.70
2023-05-10T09:32:06.636Z,0.60
2023-05-10T09:33:14.534Z,0.50
2023-05-10T09:34:22.540Z,0.60
2023-05-10T09:35:31.112Z,0.60
2023-05-10T09:36:38.212Z,0.60
2023-05-10T09:37:46.694Z,0.50
2023-05-10T09:38:57.200Z,0.50
2023-05-10T09:40:08.492Z,0.60
2023-05-10T09:41:21.190Z,0.60
2023-05-10T09:42:28.953Z,0.60
2023-05-10T09:43:40.824Z,0.60
2023-05-10T09:44:49.188Z,0.60
2023-05-10T09:45:56.848Z,0.60
2023-05-10T09:47:05.516Z,0.60
2023-05-10T09:48:14.268Z,0.70
2023-05-10T09:49:22.685Z,0.50
2023-05-10T09:50:30.295Z,0.40
2023-05-10T09:51:38.220Z,0.60
2023-05-10T09:53:01.214Z,0.50
2023-05-10T09:54:18.473Z,0.50
2023-05-10T09:55:26.978Z,0.50
2023-05-10T09:56:39.787Z,0.50
2023-05-10T09:57:47.263Z,0.50
2023-05-10T09:59:05.968Z,0.60
2023-05-10T10:00:13.321Z,0.60
2023-05-10T10:01:20.101Z,0.60
2023-05-10T10:02:31.741Z,0.60
2023-05-10T10:03:38.626Z,0.60
2023-05-10T10:04:49.275Z,0.50
2023-05-10T10:05:58.189Z,0.70
2023-05-10T10:07:06.976Z,0.50
2023-05-10T10:08:14.641Z,0.60
2023-05-10T10:09:21.684Z,0.70
2023-05-10T10:10:29.500Z,0.50
2023-05-10T10:11:40.557Z,0.60
2023-05-10T10:12:48.796Z,0.60
2023-05-10T10:13:56.862Z,0.60
2023-05-10T10:15:04.913Z,0.50
2023-05-10T10:16:13.161Z,0.60
2023-05-10T10:17:22.498Z,0.50
2023-05-10T10:18:32.242Z,0.60
2023-05-10T10:19:40.089Z,0.70
2023-05-10T10:20:47.512Z,0.60
2023-05-10T10:21:55.105Z,0.60
2023-05-10T10:23:03.045Z,0.50
2023-05-10T10:24:10.699Z,0.60
2023-05-10T10:25:19.810Z,0.60
2023-05-10T10:26:27.485Z,0.60
2023-05-10T10:27:58.031Z,0.50
2023-05-10T10:29:25.660Z,0.60
2023-05-10T10:30:46.999Z,0.50
2023-05-10T10:32:23.174Z,0.70
2023-05-10T10:34:03.070Z,0.70
2023-05-10T10:35:11.693Z,0.60
2023-05-10T10:36:18.454Z,0.50
2023-05-10T10:37:25.922Z,0.60
2023-05-10T10:39:03.657Z,0.60
2023-05-10T10:40:34.602Z,0.60
2023-05-10T10:41:52.494Z,0.70
2023-05-10T10:43:00.497Z,0.60
2023-05-10T10:44:42.804Z,0.40
2023-05-10T10:46:11.584Z,0.60
2023-05-10T10:47:32.220Z,0.60
2023-05-10T10:48:39.123Z,0.50
2023-05-10T10:49:51.363Z,0.60
2023-05-10T10:51:01.395Z,0.60
2023-05-10T10:52:31.672Z,0.50
2023-05-10T10:53:41.852Z,0.60
2023-05-10T10:55:00.589Z,0.60
2023-05-10T10:56:12.189Z,0.60
2023-05-10T10:57:21.369Z,0.50
2023-05-10T10:58:38.898Z,0.50
2023-05-10T10:59:46.652Z,0.60
2023-05-10T11:00:53.774Z,0.60
2023-05-10T11:02:02.703Z,0.60
2023-05-10T11:03:20.190Z,0.60
2023-05-10T11:04:27.437Z,0.60
2023-05-10T11:05:40.327Z,0.70
2023-05-10T11:06:50.610Z,0.60
2023-05-10T11:07:58.544Z,0.60
2023-05-10T11:09:09.659Z,0.40
2023-05-10T11:10:18.238Z,0.60
2023-05-10T11:11:25.419Z,0.70
2023-05-10T11:12:33.290Z,0.60
2023-05-10T11:13:50.821Z,0.60
2023-05-10T11:15:03.584Z,0.60
2023-05-10T11:16:26.907Z,0.60
2023-05-10T11:17:35.091Z,0.60
2023-05-10T11:18:43.241Z,0.50
2023-05-10T11:20:12.508Z,0.70
2023-05-10T11:21:19.535Z,0.60
2023-05-10T11:22:26.694Z,0.50
2023-05-10T11:23:53.614Z,0.60
2023-05-10T11:25:04.677Z,0.50
2023-05-10T11:26:12.573Z,0.60
2023-05-10T11:27:19.671Z,0.60
2023-05-10T11:28:26.639Z,0.50
2023-05-10T11:29:33.635Z,0.50
2023-05-10T11:30:44.921Z,0.60
2023-05-10T11:31:52.011Z,0.50
2023-05-10T11:32:59.112Z,0.50
2023-05-10T11:34:06.160Z,0.50
2023-05-10T11:35:13.756Z,0.60
2023-05-10T11:36:22.647Z,0.50
2023-05-10T11:37:39.507Z,0.70
2023-05-10T11:38:47.188Z,0.50
2023-05-10T11:39:54.577Z,0.50
2023-05-10T11:41:01.926Z,0.70
2023-05-10T11:42:12.059Z,0.50
2023-05-10T11:43:18.710Z,0.60
2023-05-10T11:44:26.278Z,0.70
2023-05-10T11:45:37.491Z,0.60
2023-05-10T11:46:44.598Z,0.60
2023-05-10T11:47:52.372Z,0.50
2023-05-10T11:49:04.298Z,0.40
2023-05-10T11:50:12.475Z,0.50
2023-05-10T11:51:23.122Z,0.50
2023-05-10T11:52:30.153Z,0.60
2023-05-10T11:53:36.885Z,0.50
2023-05-10T11:54:57.356Z,0.60
2023-05-10T11:56:11.926Z,0.60
2023-05-10T11:57:19.108Z,0.50
2023-05-10T11:58:26.730Z,0.50
2023-05-10T11:59:32.512Z,0.40
2023-05-10T12:00:40.983Z,0.60
2023-05-10T12:01:49.685Z,0.60
2023-05-10T12:02:56.838Z,0.50
2023-05-10T12:04:04.236Z,0.70
2023-05-10T12:05:12.549Z,0.60
2023-05-10T12:06:21.310Z,0.60
2023-05-10T12:07:30.341Z,0.60
2023-05-10T12:08:38.264Z,0.60
2023-05-10T12:10:07.657Z,0.50
2023-05-10T12:11:15.934Z,0.60
2023-05-10T12:12:23.476Z,0.70
2023-05-10T12:13:31.463Z,0.60
2023-05-10T12:14:40.237Z,0.60
2023-05-10T12:15:48.134Z,0.50
2023-05-10T12:16:56.180Z,0.50
2023-05-10T12:18:04.416Z,0.60
2023-05-10T12:19:12.944Z,0.50
2023-05-10T12:20:24.113Z,0.40
2023-05-10T12:21:33.306Z,0.70
2023-05-10T12:22:42.105Z,0.60
2023-05-10T12:23:56.413Z,0.60
2023-05-10T12:25:04.322Z,0.50
2023-05-10T12:26:15.325Z,0.60
2023-05-10T12:27:23.378Z,0.70
2023-05-10T12:28:33.805Z,0.60
2023-05-10T12:29:47.055Z,0.70
2023-05-10T12:30:55.932Z,0.60
2023-05-10T12:32:02.675Z,0.50
2023-05-10T12:33:14.631Z,0.60
2023-05-10T12:34:30.030Z,0.50
2023-05-10T12:35:46.616Z,0.50
2023-05-10T12:36:57.989Z,0.60
2023-05-10T12:38:05.989Z,0.60
2023-05-10T12:39:14.193Z,0.50
2023-05-10T12:40:21.380Z,0.40
2023-05-10T12:41:29.463Z,0.50
2023-05-10T12:42:39.255Z,0.50
2023-05-10T12:43:47.790Z,0.50
2023-05-10T12:45:00.984Z,0.70
2023-05-10T12:46:12.162Z,0.50
2023-05-10T12:47:19.298Z,0.50
2023-05-10T12:48:26.738Z,0.50
2023-05-10T12:49:35.367Z,0.60
2023-05-10T12:50:43.711Z,0.60
2023-05-10T12:51:52.836Z,0.50
2023-05-10T12:53:00.775Z,0.70
2023-05-10T12:54:08.858Z,0.60
2023-05-10T12:55:16.660Z,0.50
2023-05-10T12:56:23.888Z,0.60
2023-05-10T12:57:30.517Z,0.50
2023-05-10T12:58:38.699Z,0.60
2023-05-10T12:59:45.660Z,0.50
2023-05-10T13:00:53.969Z,0.50
2023-05-10T13:02:01.542Z,0.60
2023-05-10T13:03:08.737Z,0.60
2023-05-10T13:04:16.341Z,0.50
2023-05-10T13:05:23.830Z,0.50
2023-05-10T13:06:34.206Z,0.50
2023-05-10T13:07:41.120Z,0.60
2023-05-10T13:08:47.937Z,0.50
2023-05-10T13:09:54.759Z,0.60
2023-05-10T13:11:03.547Z,0.60
2023-05-10T13:12:11.052Z,0.60
2023-05-10T13:13:21.318Z,0.60
2023-05-10T13:14:30.348Z,0.60
2023-05-10T13:15:37.576Z,0.60
2023-05-10T13:16:44.954Z,0.50
2023-05-10T13:17:52.180Z,0.50
2023-05-10T13:18:58.924Z,0.60
2023-05-10T13:20:06.272Z,0.60
2023-05-10T13:21:14.089Z,0.60
2023-05-10T13:22:32.533Z,0.50
2023-05-10T13:23:46.705Z,0.60
2023-05-10T13:24:57.418Z,0.60
2023-05-10T13:26:06.232Z,0.50
2023-05-10T13:27:15.001Z,0.70
2023-05-10T13:28:21.736Z,0.60
2023-05-10T13:29:29.608Z,0.40
2023-05-10T13:30:37.582Z,0.60
2023-05-10T13:31:45.384Z,0.50
2023-05-10T13:32:52.884Z,0.60
2023-05-10T13:34:01.416Z,0.50
2023-05-10T13:35:10.535Z,0.50
2023-05-10T13:36:17.804Z,0.60
2023-05-10T13:37:25.811Z,0.50
2023-05-10T13:38:33.390Z,0.60
2023-05-10T13:39:40.367Z,0.60
2023-05-10T13:40:47.585Z,0.50
2023-05-10T13:41:55.825Z,0.60
2023-05-10T13:43:03.324Z,0.50
2023-05-10T13:44:11.082Z,0.50
2023-05-10T13:45:18.623Z,0.50
2023-05-10T13:46:25.304Z,0.60
2023-05-10T13:47:33.114Z,0.60
2023-05-10T13:48:40.572Z,0.50
2023-05-10T13:49:48.160Z,0.40
2023-05-10T13:50:54.865Z,0.40
2023-05-10T13:52:01.554Z,0.60
2023-05-10T13:53:08.373Z,0.60
2023-05-10T13:54:15.687Z,0.40
2023-05-10T13:55:22.560Z,0.60
2023-05-10T13:56:29.719Z,0.60
2023-05-10T13:57:38.415Z,0.40
2023-05-10T13:58:45.216Z,0.60
2023-05-10T13:59:54.061Z,0.50
2023-05-10T14:01:02.434Z,0.70
2023-05-10T14:02:09.747Z,0.50
2023-05-10T14:03:17.139Z,0.60
2023-05-10T14:04:24.098Z,0.60
2023-05-10T14:05:32.426Z,0.50
2023-05-10T14:06:40.834Z,0.60
2023-05-10T14:07:48.631Z,0.50
2023-05-10T14:08:56.125Z,0.50
2023-05-10T14:10:03.479Z,0.60
2023-05-10T14:11:10.567Z,0.40
2023-05-10T14:12:17.529Z,0.60
2023-05-10T14:13:25.100Z,0.40
2023-05-10T14:14:31.653Z,0.60
2023-05-10T14:15:40.335Z,0.60
2023-05-10T14:16:48.467Z,0.50
2023-05-10T14:17:56.461Z,0.50
2023-05-10T14:19:04.288Z,0.50
2023-05-10T14:20:11.518Z,0.60
2023-05-10T14:21:19.232Z,0.60
2023-05-10T14:22:25.884Z,0.50
2023-05-10T14:23:32.442Z,0.50
2023-05-10T14:24:39.312Z,0.40
2023-05-10T14:25:46.880Z,0.40
2023-05-10T14:26:55.726Z,0.50
2023-05-10T14:28:02.575Z,0.50
2023-05-10T14:29:10.044Z,0.60
2023-05-10T14:30:19.057Z,0.50
2023-05-10T14:31:29.094Z,0.70
2023-05-10T14:32:36.220Z,0.70
2023-05-10T14:33:43.783Z,0.60
2023-05-10T14:34:50.424Z,0.70
2023-05-10T14:35:59.302Z,0.70
2023-05-10T14:37:06.518Z,0.80
2023-05-10T14:38:13.165Z,0.80
2023-05-10T14:39:20.488Z,0.70
2023-05-10T14:40:27.128Z,0.70
2023-05-10T14:41:33.915Z,0.80
2023-05-10T14:42:40.946Z,0.70
2023-05-10T14:43:48.288Z,0.70
2023-05-10T14:44:55.328Z,0.70
2023-05-10T14:46:02.997Z,0.90
2023-05-10T14:47:11.655Z,0.80
2023-05-10T14:48:19.771Z,0.70
2023-05-10T14:49:28.462Z,0.80
2023-05-10T14:50:36.411Z,0.80
2023-05-10T14:51:44.081Z,0.80
2023-05-10T14:52:51.450Z,0.80
2023-05-10T14:53:59.608Z,0.70
2023-05-10T14:55:06.968Z,0.90
2023-05-10T14:56:13.810Z,0.70
2023-05-10T14:57:20.276Z,0.90
2023-05-10T14:58:27.225Z,0.90
2023-05-10T14:59:34.759Z,0.80
2023-05-10T15:00:43.558Z,0.80
2023-05-10T15:01:50.770Z,0.90
2023-05-10T15:02:58.079Z,1.00
2023-05-10T15:04:05.611Z,15.70
2023-05-10T15:05:13.351Z,68.30
2023-05-10T15:06:20.749Z,104.90
2023-05-10T15:07:27.937Z,115.50
2023-05-10T15:08:35.124Z,107.80
2023-05-10T15:09:42.686Z,98.20
2023-05-10T15:10:50.271Z,91.30
2023-05-10T15:11:58.075Z,86.20
2023-05-10T15:13:06.449Z,76.20
2023-05-10T15:14:14.048Z,69.10
2023-05-10T15:15:21.053Z,64.00
2023-05-10T15:16:28.915Z,58.20
2023-05-10T15:17:36.079Z,57.30
2023-05-10T15:18:43.298Z,74.70
2023-05-10T15:19:51.446Z,105.40
2023-05-10T15:20:58.389Z,134.50
2023-05-10T15:22:06.553Z,157.40
2023-05-10T15:23:14.837Z,177.00
2023-05-10T15:24:21.607Z,220.20
2023-05-10T15:25:29.748Z,273.30